createdAt,value
2019-03-02T00:00:03.575Z,6.30
2019-03-02T00:02:34.112Z,6.30
2019-03-02T00:05:04.612Z,6.30
2019-03-02T00:07:35.099Z,6.30
2019-03-02T00:10:06.623Z,6.30
2019-03-02T00:12:38.472Z,6.30
2019-03-02T00:15:09.279Z,6.30
2019-03-02T00:17:39.880Z,6.20
2019-03-02T00:20:10.468Z,6.20
2019-03-02T00:22:43.505Z,6.20
2019-03-02T00:25:13.163Z,6.20
2019-03-02T00:27:43.633Z,6.20
2019-03-02T00:30:17.788Z,6.30
2019-03-02T00:32:46.475Z,6.20
2019-03-02T00:35:17.016Z,6.20
2019-03-02T00:37:47.500Z,6.30
2019-03-02T00:40:17.959Z,6.20
2019-03-02T00:42:48.760Z,6.30
2019-03-02T00:45:20.694Z,6.20
2019-03-02T00:47:51.167Z,6.30
2019-03-02T00:50:21.658Z,6.20
2019-03-02T00:52:52.152Z,6.30
2019-03-02T00:55:22.615Z,6.20
2019-03-02T00:57:53.663Z,6.30
2019-03-02T01:00:25.018Z,6.20
2019-03-02T01:02:55.465Z,6.20
2019-03-02T01:05:25.955Z,6.20
2019-03-02T01:07:59.700Z,6.20
2019-03-02T01:10:28.738Z,6.20
2019-03-02T01:12:59.208Z,6.20
2019-03-02T01:15:29.660Z,6.20
2019-03-02T01:18:00.139Z,6.20
2019-03-02T01:20:30.623Z,6.20
2019-03-02T01:23:01.072Z,6.20
2019-03-02T01:25:31.543Z,6.20
2019-03-02T01:28:01.980Z,6.20
2019-03-02T01:30:33.074Z,6.20
2019-03-02T01:33:03.555Z,6.20
2019-03-02T01:35:34.014Z,6.20
2019-03-02T01:38:04.500Z,6.20
2019-03-02T01:40:37.845Z,6.20
2019-03-02T01:43:07.219Z,6.20
2019-03-02T01:45:37.695Z,6.20
2019-03-02T01:48:08.135Z,6.10
2019-03-02T01:50:38.629Z,6.10
2019-03-02T01:53:09.911Z,6.10
2019-03-02T01:55:41.190Z,6.10
2019-03-02T01:58:11.658Z,6.10
2019-03-02T02:00:42.113Z,6.10
2019-03-02T02:03:13.025Z,6.10
2019-03-02T02:05:43.627Z,6.10
2019-03-02T02:08:14.435Z,6.10
2019-03-02T02:10:44.878Z,6.10
2019-03-02T02:13:15.366Z,6.10
2019-03-02T02:15:45.848Z,6.10
2019-03-02T02:18:16.316Z,6.00
2019-03-02T02:20:50.106Z,6.10
2019-03-02T02:23:19.022Z,6.10
2019-03-02T02:25:49.473Z,6.10
2019-03-02T02:28:19.941Z,6.10
2019-03-02T02:30:50.410Z,6.10
2019-03-02T02:33:20.865Z,6.10
2019-03-02T02:35:51.373Z,6.10
2019-03-02T02:38:21.894Z,6.00
2019-03-02T02:40:52.367Z,6.00
2019-03-02T02:43:22.859Z,6.00
2019-03-02T02:45:55.009Z,6.00
2019-03-02T02:48:26.469Z,6.00
2019-03-02T02:50:57.930Z,6.00
2019-03-02T02:53:28.377Z,6.00
2019-03-02T02:55:58.914Z,6.00
2019-03-02T02:58:29.404Z,6.00
2019-03-02T03:00:59.875Z,6.00
2019-03-02T03:03:30.340Z,6.00
2019-03-02T03:06:00.819Z,6.00
2019-03-02T03:08:47.397Z,6.00
2019-03-02T03:11:20.081Z,6.00
2019-03-02T03:13:50.525Z,6.00
2019-03-02T03:16:21.004Z,6.00
2019-03-02T03:18:53.869Z,6.00
2019-03-02T03:21:27.892Z,5.90
2019-03-02T03:24:02.930Z,6.00
2019-03-02T03:26:30.915Z,6.00
2019-03-02T03:29:05.237Z,6.00
2019-03-02T03:31:33.085Z,6.00
2019-03-02T03:34:03.520Z,6.00
2019-03-02T03:36:35.479Z,5.90
2019-03-02T03:39:09.282Z,6.00
2019-03-02T03:41:43.463Z,6.00
2019-03-02T03:44:12.068Z,6.00
2019-03-02T03:46:42.521Z,5.90
2019-03-02T03:49:13.038Z,5.90
2019-03-02T03:51:43.500Z,5.90
2019-03-02T03:54:13.990Z,5.90
2019-03-02T03:56:44.580Z,5.90
2019-03-02T03:59:19.128Z,5.90
2019-03-02T04:01:47.204Z,5.90
2019-03-02T04:04:17.654Z,5.90
2019-03-02T04:06:48.328Z,5.90
2019-03-02T04:09:20.414Z,5.90
2019-03-02T04:11:50.869Z,5.80
2019-03-02T04:14:23.309Z,5.90
2019-03-02T04:16:55.740Z,5.90
2019-03-02T04:19:34.093Z,5.90
2019-03-02T04:22:06.405Z,5.90
2019-03-02T04:24:39.740Z,5.90
2019-03-02T04:27:10.922Z,5.90
2019-03-02T04:29:49.266Z,5.80
2019-03-02T04:32:14.211Z,5.80
2019-03-02T04:34:44.655Z,5.80
2019-03-02T04:37:15.131Z,5.80
2019-03-02T04:39:46.339Z,5.80
2019-03-02T04:42:17.790Z,5.80
2019-03-02T04:44:48.243Z,5.80
2019-03-02T04:47:18.752Z,5.80
2019-03-02T04:49:51.465Z,5.80
2019-03-02T04:52:21.439Z,5.80
2019-03-02T04:54:51.955Z,5.80
2019-03-02T04:57:22.401Z,5.80
2019-03-02T04:59:53.691Z,5.80
2019-03-02T05:02:25.085Z,5.70
2019-03-02T05:04:55.627Z,5.70
2019-03-02T05:07:26.746Z,5.70
2019-03-02T05:09:58.385Z,5.70
2019-03-02T05:12:28.816Z,5.70
2019-03-02T05:14:59.309Z,5.70
2019-03-02T05:17:29.772Z,5.70
2019-03-02T05:20:00.828Z,5.70
2019-03-02T05:22:32.380Z,5.70
2019-03-02T05:25:02.858Z,5.70
2019-03-02T05:27:33.326Z,5.70
2019-03-02T05:30:03.896Z,5.70
2019-03-02T05:32:34.357Z,5.70
2019-03-02T05:35:05.110Z,5.70
2019-03-02T05:37:39.235Z,5.70
2019-03-02T05:40:08.097Z,5.70
2019-03-02T05:42:38.535Z,5.80
2019-03-02T05:45:09.501Z,5.80
2019-03-02T05:47:41.543Z,5.80
2019-03-02T05:50:12.097Z,5.80
2019-03-02T05:52:42.528Z,5.80
2019-03-02T05:55:18.050Z,5.80
2019-03-02T05:57:45.642Z,5.70
2019-03-02T06:00:17.124Z,5.70
2019-03-02T06:02:47.583Z,5.70
2019-03-02T06:05:18.111Z,5.70
2019-03-02T06:07:48.569Z,5.70
2019-03-02T06:10:21.742Z,5.70
2019-03-02T06:12:52.743Z,5.70
2019-03-02T06:15:23.640Z,5.70
2019-03-02T06:17:54.089Z,5.70
2019-03-02T06:20:24.668Z,5.70
2019-03-02T06:22:55.536Z,5.70
2019-03-02T06:25:27.133Z,5.60
2019-03-02T06:27:57.731Z,5.60
2019-03-02T06:30:28.157Z,5.60
2019-03-02T06:32:58.617Z,5.60
2019-03-02T06:35:32.764Z,5.60
2019-03-02T06:38:01.250Z,5.60
2019-03-02T06:40:31.688Z,5.60
2019-03-02T06:43:02.130Z,5.60
2019-03-02T06:45:32.585Z,5.60
2019-03-02T06:48:05.911Z,5.60
2019-03-02T06:50:35.737Z,5.60
2019-03-02T06:53:06.264Z,5.60
2019-03-02T06:55:36.711Z,5.60
2019-03-02T06:58:07.174Z,5.60
2019-03-02T07:00:37.620Z,5.60
2019-03-02T07:03:10.182Z,5.60
2019-03-02T07:05:40.233Z,5.60
2019-03-02T07:08:10.712Z,5.60
2019-03-02T07:10:41.144Z,5.60
2019-03-02T07:13:13.767Z,5.60
2019-03-02T07:15:45.015Z,5.60
2019-03-02T07:18:26.633Z,5.60
2019-03-02T07:20:59.650Z,5.60
2019-03-02T07:23:29.321Z,5.70
2019-03-02T07:25:59.794Z,5.70
2019-03-02T07:28:30.333Z,5.70
2019-03-02T07:31:00.811Z,5.70
2019-03-02T07:33:31.301Z,5.70
2019-03-02T07:36:02.033Z,5.80
2019-03-02T07:38:32.707Z,5.80
2019-03-02T07:41:03.224Z,5.80
2019-03-02T07:43:33.700Z,5.80
2019-03-02T07:46:08.182Z,5.90
2019-03-02T07:48:36.928Z,5.90
2019-03-02T07:51:08.021Z,5.90
2019-03-02T07:53:38.497Z,5.90
2019-03-02T07:56:08.988Z,5.90
2019-03-02T07:58:39.596Z,6.00
2019-03-02T08:01:12.852Z,6.00
2019-03-02T08:03:42.216Z,6.00
2019-03-02T08:06:12.734Z,6.00
2019-03-02T08:08:45.846Z,6.00
2019-03-02T08:11:19.709Z,6.00
2019-03-02T08:13:49.778Z,6.00
2019-03-02T08:16:20.209Z,6.10
2019-03-02T08:18:50.713Z,6.10
2019-03-02T08:21:21.344Z,6.10
2019-03-02T08:23:51.929Z,6.10
2019-03-02T08:26:22.660Z,6.10
2019-03-02T08:28:53.098Z,6.10
2019-03-02T08:31:23.622Z,6.20
2019-03-02T08:33:54.198Z,6.20
2019-03-02T08:36:24.724Z,6.20
2019-03-02T08:38:55.263Z,6.20
2019-03-02T08:41:25.953Z,6.20
2019-03-02T08:43:56.701Z,6.30
2019-03-02T08:46:27.722Z,6.30
2019-03-02T08:48:58.315Z,6.30
2019-03-02T08:51:29.206Z,6.40
2019-03-02T08:53:59.703Z,6.40
2019-03-02T08:56:30.229Z,6.40
2019-03-02T08:59:01.915Z,6.40
2019-03-02T09:01:33.036Z,6.40
2019-03-02T09:04:03.484Z,6.50
2019-03-02T09:06:34.745Z,6.50
2019-03-02T09:09:09.386Z,6.50
2019-03-02T09:11:40.883Z,6.50
2019-03-02T09:14:12.683Z,6.60
2019-03-02T09:16:44.080Z,6.60
2019-03-02T09:19:16.843Z,6.60
2019-03-02T09:21:47.953Z,6.60
2019-03-02T09:24:19.700Z,6.60
2019-03-02T09:26:50.258Z,6.70
2019-03-02T09:29:20.769Z,6.70
2019-03-02T09:31:51.290Z,6.70
2019-03-02T09:34:21.804Z,6.70
2019-03-02T09:36:53.530Z,6.70
2019-03-02T09:39:24.014Z,6.80
2019-03-02T09:41:57.964Z,6.80
2019-03-02T09:44:26.866Z,6.80
2019-03-02T09:46:57.493Z,6.90
2019-03-02T09:49:28.055Z,6.90
2019-03-02T09:51:58.571Z,6.90
2019-03-02T09:54:29.114Z,6.90
2019-03-02T09:56:59.628Z,7.00
2019-03-02T09:59:30.211Z,6.90
2019-03-02T10:02:00.829Z,7.00
2019-03-02T10:04:31.348Z,7.00
2019-03-02T10:07:02.218Z,7.00
2019-03-02T10:09:33.775Z,7.00
2019-03-02T10:12:04.394Z,7.00
2019-03-02T10:14:35.237Z,7.10
2019-03-02T10:17:05.991Z,7.10
2019-03-02T10:19:37.952Z,7.10
2019-03-02T10:22:09.104Z,7.10
2019-03-02T10:24:44.730Z,7.10
2019-03-02T10:27:21.081Z,7.20
2019-03-02T10:29:51.798Z,7.20
2019-03-02T10:32:22.234Z,7.20
2019-03-02T10:34:52.702Z,7.20
2019-03-02T10:37:23.330Z,7.30
2019-03-02T10:39:53.849Z,7.30
2019-03-02T10:42:24.337Z,7.30
2019-03-02T10:44:57.031Z,7.30
2019-03-02T10:47:27.433Z,7.30
2019-03-02T10:49:57.865Z,7.30
2019-03-02T10:52:28.375Z,7.40
2019-03-02T10:54:58.852Z,7.40
2019-03-02T10:57:29.618Z,7.40
2019-03-02T11:00:00.137Z,7.40
2019-03-02T11:02:30.557Z,7.40
2019-03-02T11:05:09.818Z,7.40
2019-03-02T11:08:02.427Z,7.40
2019-03-02T11:10:54.599Z,7.40
2019-03-02T11:13:35.779Z,7.40
2019-03-02T11:16:31.600Z,7.40
2019-03-02T11:19:11.444Z,7.40
2019-03-02T11:21:59.596Z,7.40
2019-03-02T11:24:57.901Z,7.40
2019-03-02T11:27:49.722Z,7.40
2019-03-02T11:30:30.832Z,7.40
2019-03-02T11:33:30.991Z,7.50
2019-03-02T11:36:19.528Z,7.50
2019-03-02T11:39:05.263Z,7.50
2019-03-02T11:41:53.822Z,7.50
2019-03-02T11:44:39.001Z,7.50
2019-03-02T11:47:17.632Z,7.50
2019-03-02T11:50:05.558Z,7.50
2019-03-02T11:52:50.390Z,7.50
2019-03-02T11:55:39.297Z,7.50
2019-03-02T11:58:44.013Z,7.60
2019-03-02T12:01:42.467Z,7.60
2019-03-02T12:04:34.636Z,7.60
2019-03-02T12:07:22.797Z,7.70
2019-03-02T12:10:21.549Z,7.80
2019-03-02T12:13:23.101Z,7.80
2019-03-02T12:16:22.244Z,7.80
2019-03-02T12:19:02.527Z,7.90
2019-03-02T12:21:58.763Z,8.00
2019-03-02T12:24:36.897Z,8.10
2019-03-02T12:27:22.476Z,8.20
2019-03-02T12:30:03.712Z,8.30
2019-03-02T12:32:56.144Z,8.40
2019-03-02T12:35:48.885Z,8.50
2019-03-02T12:38:38.334Z,8.60
2019-03-02T12:41:15.931Z,8.70
2019-03-02T12:43:59.605Z,8.80
2019-03-02T12:46:58.317Z,8.90
2019-03-02T12:49:44.022Z,9.00
2019-03-02T12:52:42.737Z,9.00
2019-03-02T12:55:20.603Z,9.10
2019-03-02T12:58:12.083Z,9.20
2019-03-02T13:01:05.220Z,9.30
2019-03-02T13:03:54.722Z,9.40
2019-03-02T13:06:37.421Z,9.50
2019-03-02T13:34:37.310Z,9.90
2019-03-02T13:37:24.469Z,10.40
2019-03-02T13:40:12.688Z,10.40
2019-03-02T13:43:04.476Z,10.40
2019-03-02T13:45:48.203Z,10.40
2019-03-02T13:48:26.757Z,10.40
2019-03-02T13:51:21.756Z,10.50
2019-03-02T13:54:02.984Z,10.50
2019-03-02T13:56:53.791Z,10.60
2019-03-02T13:59:49.403Z,10.60
2019-03-02T14:02:42.262Z,10.60
2019-03-02T14:05:31.010Z,10.60
2019-03-02T14:08:19.099Z,10.70
2019-03-02T14:11:11.496Z,10.70
2019-03-02T14:14:03.726Z,10.70
2019-03-02T14:16:55.625Z,10.70
2019-03-02T14:19:57.171Z,10.70
2019-03-02T14:23:04.980Z,10.80
2019-03-02T14:25:42.298Z,10.80
2019-03-02T14:28:30.484Z,10.80
2019-03-02T14:31:25.780Z,10.90
2019-03-02T14:34:27.308Z,10.90
2019-03-02T14:37:12.110Z,10.90
2019-03-02T14:39:55.358Z,11.00
2019-03-02T14:42:43.488Z,11.00
2019-03-02T14:45:37.379Z,11.00
2019-03-02T14:48:39.100Z,11.10
2019-03-02T14:51:37.697Z,11.10
2019-03-02T14:54:20.856Z,11.10
2019-03-02T14:57:06.492Z,11.10
2019-03-02T14:59:50.244Z,11.10
2019-03-02T15:02:38.122Z,11.10
2019-03-02T15:05:35.788Z,11.10
2019-03-02T15:08:16.911Z,11.10
2019-03-02T15:11:09.333Z,11.20
2019-03-02T15:13:50.950Z,11.20
2019-03-02T15:16:38.283Z,11.20
2019-03-02T15:19:27.138Z,11.20
2019-03-02T15:22:09.318Z,11.20
2019-03-02T15:25:01.893Z,11.20
2019-03-02T15:27:53.018Z,11.20
2019-03-02T15:30:40.535Z,11.30
2019-03-02T15:33:30.292Z,11.30
2019-03-02T15:36:11.922Z,11.30
2019-03-02T15:39:01.471Z,11.30
2019-03-02T15:41:38.280Z,11.30
2019-03-02T15:44:17.590Z,11.30
2019-03-02T15:47:02.649Z,11.30
2019-03-02T15:49:43.630Z,11.30
2019-03-02T15:52:25.798Z,11.20
2019-03-02T15:55:19.530Z,11.20
2019-03-02T15:58:23.328Z,11.20
2019-03-02T16:01:18.375Z,11.20
2019-03-02T16:03:57.202Z,11.10
2019-03-02T16:06:41.154Z,11.10
2019-03-02T16:09:30.386Z,11.10
2019-03-02T16:12:35.414Z,11.10
2019-03-02T16:15:21.036Z,11.10
2019-03-02T16:18:25.506Z,11.10
2019-03-02T16:21:21.281Z,11.10
2019-03-02T16:24:09.392Z,11.00
2019-03-02T16:26:56.908Z,11.00
2019-03-02T16:29:39.641Z,11.00
2019-03-02T16:55:16.087Z,10.50
2019-03-02T16:58:13.948Z,10.50
2019-03-02T17:01:02.659Z,10.50
2019-03-02T17:03:54.763Z,10.50
2019-03-02T17:06:46.491Z,10.40
2019-03-02T17:09:51.123Z,10.40
2019-03-02T17:12:37.802Z,10.40
2019-03-02T17:15:22.639Z,10.40
2019-03-02T17:18:25.321Z,10.40
2019-03-02T17:21:08.441Z,10.40
2019-03-02T17:23:59.946Z,10.30
2019-03-02T17:26:46.115Z,10.30
2019-03-02T17:29:26.608Z,10.30
2019-03-02T17:32:19.138Z,10.20
2019-03-02T17:35:25.604Z,10.20
2019-03-02T17:38:23.131Z,10.20
2019-03-02T17:41:07.526Z,10.10
2019-03-02T17:43:56.565Z,10.10
2019-03-02T17:46:47.153Z,10.00
2019-03-02T17:49:41.032Z,10.00
2019-03-02T17:52:23.295Z,9.90
2019-03-02T17:55:12.849Z,9.90
2019-03-02T17:58:01.265Z,9.90
2019-03-02T18:00:53.172Z,9.90
2019-03-02T18:03:50.437Z,9.90
2019-03-02T18:06:41.777Z,9.80
2019-03-02T18:09:30.295Z,9.80
2019-03-02T18:12:12.484Z,9.80
2019-03-02T18:14:51.537Z,9.80
2019-03-02T18:17:46.894Z,9.70
2019-03-02T18:20:19.612Z,9.70
2019-03-02T18:22:51.987Z,9.70
2019-03-02T18:25:22.706Z,9.70
2019-03-02T18:27:53.385Z,9.70
2019-03-02T18:30:24.229Z,9.70
2019-03-02T18:33:01.917Z,9.70
2019-03-02T18:35:34.082Z,9.70
2019-03-02T18:38:08.968Z,9.70
2019-03-02T18:40:40.258Z,9.60
2019-03-02T18:43:14.306Z,9.70
2019-03-02T18:45:45.908Z,9.60
2019-03-02T18:48:41.630Z,9.60
2019-03-02T18:51:44.428Z,9.60
2019-03-02T18:54:13.812Z,9.60
2019-03-02T18:56:45.561Z,9.60
2019-03-02T18:59:16.150Z,9.60
2019-03-02T19:01:48.490Z,9.60
2019-03-02T19:04:22.480Z,9.60
2019-03-02T19:06:53.201Z,9.60
2019-03-02T19:09:26.311Z,9.60
2019-03-02T19:11:56.634Z,9.60
2019-03-02T19:14:27.760Z,9.60
2019-03-02T19:16:58.475Z,9.60
2019-03-02T19:19:29.176Z,9.60
2019-03-02T19:21:59.878Z,9.70
2019-03-02T19:24:30.491Z,9.70
2019-03-02T19:27:01.262Z,9.70
2019-03-02T19:29:31.834Z,9.70
2019-03-02T19:32:02.591Z,9.70
2019-03-02T19:34:33.474Z,9.70
2019-03-02T19:37:04.275Z,9.70
2019-03-02T19:40:05.849Z,9.80
2019-03-02T19:42:36.486Z,9.80
2019-03-02T19:45:13.745Z,9.80
